createdAt,value
2023-10-28T00:02:35.754Z,17.10
2023-10-28T00:05:21.469Z,18.33
2023-10-28T00:08:09.146Z,13.07
2023-10-28T00:10:54.972Z,13.88
2023-10-28T00:13:41.483Z,17.40
2023-10-28T00:16:27.214Z,17.73
2023-10-28T00:19:12.886Z,23.02
2023-10-28T00:21:59.343Z,14.95
2023-10-28T00:24:45.360Z,26.27
2023-10-28T00:27:33.557Z,16.13
2023-10-28T00:30:19.593Z,16.40
2023-10-28T00:33:05.430Z,20.92
2023-10-28T00:35:51.208Z,25.63
2023-10-28T00:38:37.316Z,13.88
2023-10-28T00:41:22.875Z,18.10
2023-10-28T00:44:09.500Z,19.92
2023-10-28T00:46:55.233Z,18.98
2023-10-28T00:49:44.336Z,18.67
2023-10-28T00:52:30.712Z,24.77
2023-10-28T00:55:18.087Z,24.33
2023-10-28T00:58:04.117Z,17.80
2023-10-28T01:00:50.362Z,22.02
2023-10-28T01:03:36.318Z,14.45
2023-10-28T01:06:21.994Z,22.73
2023-10-28T01:09:09.855Z,16.27
2023-10-28T01:11:57.050Z,24.10
2023-10-28T01:14:43.457Z,24.08
2023-10-28T01:17:31.127Z,18.48
2023-10-28T01:20:17.795Z,15.57
2023-10-28T01:23:03.829Z,15.52
2023-10-28T01:25:49.967Z,16.70
2023-10-28T01:28:37.879Z,16.27
2023-10-28T01:31:23.449Z,15.60
2023-10-28T01:34:09.601Z,13.70
2023-10-28T01:36:57.602Z,12.15
2023-10-28T01:39:52.938Z,12.32
2023-10-28T01:42:39.239Z,14.60
2023-10-28T01:45:26.205Z,15.23
2023-10-28T01:48:13.228Z,14.60
2023-10-28T01:50:59.321Z,21.27
2023-10-28T01:53:45.711Z,21.35
2023-10-28T01:56:31.381Z,13.10
2023-10-28T01:59:17.174Z,16.05
2023-10-28T02:02:04.359Z,12.73
2023-10-28T02:04:52.954Z,20.80
2023-10-28T02:07:39.630Z,13.25
2023-10-28T02:10:25.531Z,17.52
2023-10-28T02:13:11.768Z,20.27
2023-10-28T02:15:57.962Z,15.13
2023-10-28T02:18:45.327Z,15.30
2023-10-28T02:21:31.542Z,18.17
2023-10-28T02:24:21.069Z,11.00
2023-10-28T02:27:07.205Z,25.70
2023-10-28T02:29:53.512Z,13.35
2023-10-28T02:32:39.691Z,15.40
2023-10-28T02:35:25.321Z,15.60
2023-10-28T02:38:11.886Z,21.65
2023-10-28T02:41:00.063Z,16.17
2023-10-28T02:43:47.368Z,14.23
2023-10-28T02:46:34.090Z,13.25
2023-10-28T02:49:19.873Z,17.77
2023-10-28T02:52:06.505Z,15.65
2023-10-28T02:54:53.267Z,23.13
2023-10-28T02:57:39.724Z,15.57
2023-10-28T03:00:28.526Z,11.75
2023-10-28T03:03:14.430Z,14.57
2023-10-28T03:06:00.251Z,13.55
2023-10-28T03:08:46.198Z,15.05
2023-10-28T03:11:32.205Z,19.48
2023-10-28T03:14:18.540Z,9.52
2023-10-28T03:17:05.875Z,21.05
2023-10-28T03:19:52.828Z,17.77
2023-10-28T03:22:39.499Z,20.30
2023-10-28T03:25:26.075Z,15.90
2023-10-28T03:28:12.250Z,18.50
2023-10-28T03:30:58.371Z,12.50
2023-10-28T03:33:44.551Z,13.95
2023-10-28T03:36:30.536Z,11.60
2023-10-28T03:39:18.687Z,14.85
2023-10-28T03:42:04.795Z,13.52
2023-10-28T03:44:50.932Z,6.70
2023-10-28T03:47:37.655Z,14.38
2023-10-28T03:50:24.481Z,21.33
2023-10-28T03:53:10.412Z,13.93
2023-10-28T03:55:56.978Z,16.35
2023-10-28T03:58:42.701Z,20.42
2023-10-28T04:01:28.743Z,18.40
2023-10-28T04:04:14.448Z,11.70
2023-10-28T04:07:00.539Z,18.42
2023-10-28T04:09:47.409Z,12.25
2023-10-28T04:12:33.532Z,15.80
2023-10-28T04:15:19.787Z,15.15
2023-10-28T04:18:05.752Z,16.20
2023-10-28T04:20:51.742Z,13.60
2023-10-28T04:23:37.572Z,16.48
2023-10-28T04:26:23.396Z,17.83
2023-10-28T04:29:09.951Z,17.40
2023-10-28T04:31:56.099Z,15.90
2023-10-28T04:34:54.506Z,20.02
2023-10-28T04:37:43.291Z,18.02
2023-10-28T04:40:28.962Z,19.63
2023-10-28T04:43:15.263Z,18.48
2023-10-28T04:46:01.323Z,14.95
2023-10-28T04:48:47.957Z,19.58
2023-10-28T04:51:34.407Z,17.38
2023-10-28T04:54:20.736Z,16.92
2023-10-28T04:57:06.413Z,17.67
2023-10-28T04:59:52.222Z,20.98
2023-10-28T05:02:38.054Z,26.05
2023-10-28T05:05:23.888Z,25.50
2023-10-28T05:08:09.989Z,18.67
2023-10-28T05:10:56.400Z,21.38
2023-10-28T05:13:43.706Z,16.95
2023-10-28T05:16:29.588Z,24.75
2023-10-28T05:19:15.632Z,21.63
2023-10-28T05:22:03.996Z,22.58
2023-10-28T05:24:53.824Z,22.40
2023-10-28T05:27:41.242Z,18.05
2023-10-28T05:30:27.769Z,17.38
2023-10-28T05:33:15.085Z,18.48
2023-10-28T05:36:01.068Z,23.98
2023-10-28T05:38:47.138Z,18.90
2023-10-28T05:41:33.237Z,27.35
2023-10-28T05:44:20.020Z,19.27
2023-10-28T05:47:06.078Z,21.95
2023-10-28T05:49:51.702Z,16.35
2023-10-28T05:52:39.796Z,16.85
2023-10-28T05:55:25.457Z,23.98
2023-10-28T05:58:11.480Z,20.55
2023-10-28T06:01:00.504Z,21.55
2023-10-28T06:03:47.576Z,22.27
2023-10-28T06:06:33.444Z,17.88
2023-10-28T06:09:19.987Z,18.35
2023-10-28T06:12:06.010Z,19.77
2023-10-28T06:14:52.315Z,22.48
2023-10-28T06:17:38.042Z,20.60
2023-10-28T06:20:24.247Z,23.38
2023-10-28T06:23:09.879Z,23.02
2023-10-28T06:25:56.413Z,17.23
2023-10-28T06:28:43.281Z,21.77
2023-10-28T06:31:29.615Z,16.25
2023-10-28T06:34:15.762Z,21.33
2023-10-28T06:37:02.040Z,13.45
2023-10-28T06:39:49.727Z,24.85
2023-10-28T06:42:40.432Z,20.38
2023-10-28T06:45:26.910Z,20.45
2023-10-28T06:48:12.477Z,19.45
2023-10-28T06:50:59.275Z,18.70
2023-10-28T06:53:46.076Z,14.43
2023-10-28T06:56:32.213Z,15.98
2023-10-28T06:59:17.860Z,20.48
2023-10-28T07:02:03.743Z,13.98
2023-10-28T07:04:49.765Z,17.77
2023-10-28T07:07:36.359Z,15.38
2023-10-28T07:10:23.478Z,17.50
2023-10-28T07:13:09.903Z,20.67
2023-10-28T07:16:05.561Z,15.88
2023-10-28T07:18:51.611Z,16.05
2023-10-28T07:21:37.517Z,16.48
2023-10-28T07:24:23.337Z,22.30
2023-10-28T07:27:09.632Z,16.17
2023-10-28T07:29:55.423Z,13.55
2023-10-28T07:32:41.892Z,20.52
2023-10-28T07:35:28.696Z,24.02
2023-10-28T07:38:18.822Z,21.33
2023-10-28T07:41:04.725Z,18.25
2023-10-28T07:43:50.391Z,12.00
2023-10-28T07:46:36.295Z,15.10
2023-10-28T07:49:22.371Z,21.17
2023-10-28T07:52:08.849Z,22.20
2023-10-28T07:54:55.341Z,27.23
2023-10-28T07:57:41.172Z,12.80
2023-10-28T08:00:27.630Z,15.50
2023-10-28T08:03:14.954Z,19.52
2023-10-28T08:06:09.853Z,13.30
2023-10-28T08:08:58.904Z,13.13
2023-10-28T08:11:45.107Z,14.23
2023-10-28T08:14:33.695Z,15.82
2023-10-28T08:17:20.073Z,20.48
2023-10-28T08:20:06.356Z,12.90
2023-10-28T08:22:51.959Z,14.40
2023-10-28T08:25:37.974Z,18.73
2023-10-28T08:28:24.347Z,14.80
2023-10-28T08:31:10.822Z,13.07
2023-10-28T08:33:56.649Z,13.63
2023-10-28T08:36:45.345Z,14.32
2023-10-28T08:39:32.744Z,16.05
2023-10-28T08:42:19.018Z,15.27
2023-10-28T08:45:05.432Z,36.83
2023-10-28T08:47:51.999Z,17.77
2023-10-28T08:50:40.876Z,15.00
2023-10-28T08:53:27.194Z,12.05
2023-10-28T08:56:20.799Z,9.82
2023-10-28T09:01:52.940Z,16.80
2023-10-28T09:04:38.585Z,20.25
2023-10-28T09:07:24.975Z,18.00
2023-10-28T09:10:11.834Z,21.30
2023-10-28T09:12:58.187Z,16.67
2023-10-28T09:15:44.300Z,13.80
2023-10-28T09:18:40.676Z,18.85
2023-10-28T09:21:26.964Z,13.43
2023-10-28T09:24:13.150Z,18.38
2023-10-28T09:26:59.193Z,17.92
2023-10-28T09:29:45.558Z,23.58
2023-10-28T09:32:34.413Z,24.98
2023-10-28T09:35:21.564Z,15.07
2023-10-28T09:38:09.232Z,18.15
2023-10-28T09:40:55.847Z,16.92
2023-10-28T09:43:41.871Z,14.02
2023-10-28T09:46:32.711Z,19.77
2023-10-28T09:49:22.036Z,24.67
2023-10-28T09:52:08.777Z,11.10
2023-10-28T09:55:03.868Z,26.95
2023-10-28T09:57:56.714Z,12.48
2023-10-28T10:00:44.374Z,11.32
2023-10-28T10:03:45.693Z,21.35
2023-10-28T10:06:31.474Z,14.32
2023-10-28T10:09:21.042Z,14.20
2023-10-28T10:12:07.313Z,12.48
2023-10-28T10:14:54.481Z,12.27
2023-10-28T10:17:59.914Z,11.50
2023-10-28T10:20:45.950Z,12.80
2023-10-28T10:23:42.647Z,14.73
2023-10-28T10:26:33.005Z,16.50
2023-10-28T10:29:19.353Z,23.20
2023-10-28T10:32:18.920Z,27.75
2023-10-28T10:35:29.408Z,14.15
2023-10-28T10:38:16.037Z,12.68
2023-10-28T10:41:03.611Z,16.25
2023-10-28T10:43:49.264Z,15.15
2023-10-28T10:46:35.195Z,10.70
2023-10-28T10:49:21.651Z,11.77
2023-10-28T10:52:09.622Z,6.82
2023-10-28T10:55:01.415Z,5.38
2023-10-28T10:57:47.438Z,11.73
2023-10-28T11:00:34.389Z,6.35
2023-10-28T11:03:21.407Z,7.25
2023-10-28T11:06:08.119Z,8.52
2023-10-28T11:08:53.966Z,7.07
2023-10-28T11:11:39.992Z,4.82
2023-10-28T11:14:26.095Z,4.18
2023-10-28T11:17:12.190Z,11.93
2023-10-28T11:20:14.083Z,13.48
2023-10-28T11:23:00.467Z,10.07
2023-10-28T11:25:50.084Z,10.48
2023-10-28T11:28:39.534Z,12.45
2023-10-28T11:31:25.859Z,12.13
2023-10-28T11:34:13.360Z,18.08
2023-10-28T11:37:00.976Z,10.27
2023-10-28T11:39:47.120Z,3.13
2023-10-28T11:42:35.024Z,3.38
2023-10-28T11:45:21.119Z,8.50
2023-10-28T11:48:09.859Z,5.47
2023-10-28T11:50:55.922Z,4.47
2023-10-28T11:53:48.290Z,6.55
2023-10-28T11:56:34.886Z,5.95
2023-10-28T11:59:20.722Z,8.48
2023-10-28T12:02:06.554Z,8.50
2023-10-28T12:04:52.562Z,7.00
2023-10-28T12:07:38.316Z,10.98
2023-10-28T12:10:24.386Z,6.57
2023-10-28T12:13:14.488Z,6.82
2023-10-28T12:16:00.704Z,5.47
2023-10-28T12:18:46.316Z,3.47
2023-10-28T12:21:33.992Z,4.18
2023-10-28T12:24:21.226Z,5.50
2023-10-28T12:27:07.083Z,6.28
2023-10-28T12:29:53.365Z,3.42
2023-10-28T12:32:39.438Z,7.03
2023-10-28T12:35:25.282Z,5.78
2023-10-28T12:38:12.231Z,9.05
2023-10-28T12:40:58.407Z,2.92
2023-10-28T12:43:44.462Z,5.20
2023-10-28T12:46:31.948Z,7.00
2023-10-28T12:49:17.637Z,5.38
2023-10-28T12:52:03.923Z,8.52
2023-10-28T12:54:51.182Z,6.88
2023-10-28T12:57:37.142Z,3.58
2023-10-28T13:00:23.716Z,2.70
2023-10-28T13:03:10.150Z,7.00
2023-10-28T13:05:57.310Z,3.85
2023-10-28T13:08:44.296Z,4.45
2023-10-28T13:11:30.079Z,3.15
2023-10-28T13:14:20.060Z,7.00
2023-10-28T13:17:06.426Z,6.32
2023-10-28T13:19:52.379Z,5.63
2023-10-28T13:22:38.830Z,7.75
2023-10-28T13:25:25.259Z,5.15
2023-10-28T13:28:11.988Z,7.53
2023-10-28T13:30:57.773Z,7.70
2023-10-28T13:33:43.577Z,4.32
2023-10-28T13:36:29.760Z,9.05
2023-10-28T13:39:15.732Z,17.73
2023-10-28T13:42:02.671Z,5.63
2023-10-28T13:44:48.426Z,8.15
2023-10-28T13:47:34.636Z,5.88
2023-10-28T13:50:20.312Z,10.90
2023-10-28T13:53:06.374Z,8.57
2023-10-28T13:55:57.214Z,6.20
2023-10-28T13:58:43.871Z,4.53
2023-10-28T14:01:31.029Z,4.82
2023-10-28T14:04:17.918Z,5.28
2023-10-28T14:07:04.063Z,4.82
2023-10-28T14:09:50.099Z,5.65
2023-10-28T14:12:35.731Z,4.40
2023-10-28T14:15:22.385Z,2.25
2023-10-28T14:18:09.677Z,7.50
2023-10-28T14:20:55.552Z,4.15
2023-10-28T14:23:41.353Z,4.93
2023-10-28T14:26:27.262Z,4.57
2023-10-28T14:29:13.229Z,5.50
2023-10-28T14:31:59.692Z,2.80
2023-10-28T14:34:45.445Z,4.65
2023-10-28T14:37:31.907Z,5.60
2023-10-28T14:40:18.324Z,7.68
2023-10-28T14:43:03.674Z,7.13
2023-10-28T14:45:50.597Z,2.50
2023-10-28T14:48:36.301Z,5.53
2023-10-28T14:51:23.442Z,3.97
2023-10-28T14:54:09.490Z,7.38
2023-10-28T14:56:55.815Z,6.40
2023-10-28T14:59:48.346Z,3.75
2023-10-28T15:02:35.545Z,4.23
2023-10-28T15:05:21.172Z,5.53
2023-10-28T15:08:07.301Z,5.22
2023-10-28T15:10:53.469Z,11.55
2023-10-28T15:13:39.932Z,4.72
2023-10-28T15:16:26.409Z,4.97
2023-10-28T15:19:12.652Z,4.07
2023-10-28T15:21:59.287Z,5.40
2023-10-28T15:24:45.552Z,4.30
2023-10-28T15:27:35.648Z,2.92
2023-10-28T15:30:22.001Z,5.80
2023-10-28T15:33:08.573Z,6.57
2023-10-28T15:35:55.197Z,2.28
2023-10-28T15:38:42.133Z,5.18
2023-10-28T15:41:28.015Z,3.85
2023-10-28T15:44:14.468Z,4.68
2023-10-28T15:47:00.574Z,6.47
2023-10-28T15:49:47.358Z,3.65
2023-10-28T15:52:34.188Z,3.92
2023-10-28T15:55:20.326Z,6.28
2023-10-28T15:58:06.035Z,8.27
2023-10-28T16:00:53.267Z,4.22
2023-10-28T16:03:39.622Z,4.13
2023-10-28T16:06:25.772Z,5.32
2023-10-28T16:09:11.613Z,1.63
2023-10-28T16:11:58.217Z,8.38
2023-10-28T16:14:46.796Z,6.65
2023-10-28T16:17:32.580Z,7.80
2023-10-28T16:20:18.928Z,7.68
2023-10-28T16:23:05.754Z,4.90
2023-10-28T16:25:51.855Z,4.80
2023-10-28T16:28:37.822Z,11.82
2023-10-28T16:31:23.776Z,6.43
2023-10-28T16:34:10.203Z,8.90
2023-10-28T16:36:57.108Z,4.75
2023-10-28T16:39:43.764Z,8.95
2023-10-28T16:42:31.592Z,6.15
2023-10-28T16:45:18.928Z,3.92
2023-10-28T16:48:05.388Z,8.60
2023-10-28T16:50:51.029Z,6.43
2023-10-28T16:53:36.996Z,6.97
2023-10-28T16:56:23.259Z,3.65
2023-10-28T16:59:10.275Z,5.35
2023-10-28T17:01:56.248Z,8.43
2023-10-28T17:04:42.520Z,6.22
2023-10-28T17:07:28.192Z,5.60
2023-10-28T17:10:13.895Z,6.30
2023-10-28T17:13:01.952Z,8.02
2023-10-28T17:15:48.663Z,10.13
2023-10-28T17:18:35.438Z,10.63
2023-10-28T17:21:22.240Z,6.50
2023-10-28T17:24:08.840Z,10.13
2023-10-28T17:26:55.394Z,12.50
2023-10-28T17:29:45.315Z,8.73
2023-10-28T17:32:31.331Z,7.88
2023-10-28T17:35:17.079Z,8.48
2023-10-28T17:38:04.215Z,7.80
2023-10-28T17:40:50.242Z,11.80
2023-10-28T17:43:37.977Z,8.93
2023-10-28T17:46:24.516Z,4.55
2023-10-28T17:49:11.608Z,4.93
2023-10-28T17:51:57.491Z,5.35
2023-10-28T17:54:43.650Z,9.90
2023-10-28T17:57:29.716Z,6.97
2023-10-28T18:00:18.082Z,4.03
2023-10-28T18:03:04.415Z,5.47
2023-10-28T18:05:50.417Z,4.88
2023-10-28T18:08:36.281Z,9.55
2023-10-28T18:11:23.256Z,10.73
2023-10-28T18:14:09.310Z,11.10
2023-10-28T18:16:55.811Z,9.52
2023-10-28T18:19:42.193Z,7.15
2023-10-28T18:22:28.348Z,9.85
2023-10-28T18:25:14.458Z,13.52
2023-10-28T18:28:00.857Z,6.25
2023-10-28T18:30:46.723Z,13.18
2023-10-28T18:33:34.232Z,8.10
2023-10-28T18:36:23.808Z,7.72
2023-10-28T18:39:10.238Z,9.93
2023-10-28T18:41:56.097Z,9.82
2023-10-28T18:44:42.113Z,6.93
2023-10-28T18:47:29.048Z,6.55
2023-10-28T18:50:18.059Z,3.75
2023-10-28T18:53:03.978Z,6.70
2023-10-28T18:55:49.805Z,7.22
2023-10-28T18:58:38.668Z,6.18
2023-10-28T19:01:27.220Z,7.70
2023-10-28T19:04:13.145Z,5.47
2023-10-28T19:06:59.364Z,6.40
2023-10-28T19:09:45.172Z,7.18
2023-10-28T19:12:30.660Z,11.80
2023-10-28T19:15:16.617Z,4.93
2023-10-28T19:18:02.576Z,7.25
2023-10-28T19:20:48.857Z,6.10
2023-10-28T19:23:34.620Z,4.72
2023-10-28T19:26:20.548Z,5.82
2023-10-28T19:29:08.557Z,9.25
2023-10-28T19:31:55.383Z,6.75
2023-10-28T19:34:43.087Z,6.43
2023-10-28T19:37:29.434Z,9.18
2023-10-28T19:40:15.145Z,4.68
2023-10-28T19:43:02.504Z,7.05
2023-10-28T19:45:48.758Z,9.32
2023-10-28T19:48:34.919Z,6.05
2023-10-28T19:51:22.575Z,6.22
2023-10-28T19:54:10.137Z,5.10
2023-10-28T19:56:57.058Z,4.53
2023-10-28T19:59:42.932Z,11.73
2023-10-28T20:02:29.412Z,8.25
2023-10-28T20:05:17.740Z,10.35
2023-10-28T20:08:03.625Z,9.43
2023-10-28T20:10:49.241Z,6.53
2023-10-28T20:13:35.419Z,4.57
2023-10-28T20:16:21.892Z,5.65
2023-10-28T20:19:08.454Z,8.23
2023-10-28T20:21:54.321Z,8.05
2023-10-28T20:24:43.028Z,7.28
2023-10-28T20:27:30.252Z,6.70
2023-10-28T20:30:19.797Z,6.82
2023-10-28T20:33:06.643Z,6.60
2023-10-28T20:35:56.437Z,5.03
2023-10-28T20:38:42.158Z,8.55
2023-10-28T20:41:32.461Z,8.57
2023-10-28T20:44:19.947Z,10.77
2023-10-28T20:47:05.875Z,6.90
2023-10-28T20:49:53.701Z,10.20
2023-10-28T20:52:42.157Z,8.55
2023-10-28T20:55:28.856Z,9.02
2023-10-28T20:58:16.508Z,9.02
2023-10-28T21:01:03.939Z,6.57
2023-10-28T21:03:50.716Z,5.55
2023-10-28T21:06:36.468Z,4.18
2023-10-28T21:09:23.957Z,10.40
2023-10-28T21:12:10.030Z,3.85
2023-10-28T21:14:56.016Z,4.60
2023-10-28T21:17:42.441Z,5.93
2023-10-28T21:20:28.655Z,6.57
2023-10-28T21:23:14.379Z,8.50
2023-10-28T21:26:01.895Z,5.78
2023-10-28T21:28:49.415Z,4.72
2023-10-28T21:31:35.672Z,6.30
2023-10-28T21:34:21.669Z,5.63
2023-10-28T21:37:07.230Z,4.65
2023-10-28T21:39:53.008Z,10.60
2023-10-28T21:42:38.883Z,5.15
2023-10-28T21:45:25.440Z,10.00
2023-10-28T21:48:11.781Z,14.55
2023-10-28T21:50:58.206Z,8.43
2023-10-28T21:53:45.159Z,6.32
2023-10-28T21:56:31.606Z,8.68
2023-10-28T21:59:17.356Z,12.73
2023-10-28T22:02:06.362Z,4.30
2023-10-28T22:04:53.062Z,6.00
2023-10-28T22:07:40.869Z,5.00
2023-10-28T22:10:32.789Z,6.93
2023-10-28T22:13:19.307Z,6.10
2023-10-28T22:16:06.048Z,19.92
2023-10-28T22:18:52.914Z,7.90
2023-10-28T22:21:39.024Z,7.70
2023-10-28T22:24:24.754Z,4.25
2023-10-28T22:27:10.565Z,3.45
2023-10-28T22:29:56.624Z,4.90
2023-10-28T22:32:42.740Z,5.28
2023-10-28T22:35:28.786Z,4.88
2023-10-28T22:38:15.388Z,9.32
2023-10-28T22:41:01.603Z,7.50
2023-10-28T22:43:47.411Z,5.18
2023-10-28T22:46:34.251Z,7.70
2023-10-28T22:49:20.188Z,11.82
2023-10-28T22:52:06.211Z,7.75
2023-10-28T22:54:52.027Z,6.63
2023-10-28T22:57:38.872Z,7.20
2023-10-28T23:00:28.252Z,3.95
2023-10-28T23:03:15.389Z,7.55
2023-10-28T23:06:01.467Z,8.05
2023-10-28T23:08:48.621Z,5.88
2023-10-28T23:11:37.707Z,5.10
2023-10-28T23:14:24.077Z,10.73
2023-10-28T23:17:10.453Z,3.97
2023-10-28T23:19:56.132Z,8.93
2023-10-28T23:22:42.274Z,6.68
2023-10-28T23:25:27.760Z,7.00
2023-10-28T23:28:13.904Z,7.53
2023-10-28T23:31:00.176Z,4.97
2023-10-28T23:33:46.654Z,4.93
2023-10-28T23:36:32.486Z,13.20
2023-10-28T23:39:18.506Z,5.13
2023-10-28T23:42:04.712Z,10.73
2023-10-28T23:44:50.527Z,4.03
2023-10-28T23:47:36.507Z,6.07
2023-10-28T23:50:22.527Z,5.32
2023-10-28T23:53:08.653Z,5.75
2023-10-28T23:55:54.733Z,4.65
2023-10-28T23:58:40.646Z,10.18
